sensor_id;sensor_type;location;lat;lon;timestamp;pressure;altitude;pressure_sealevel;temperature;humidity
69058;BME280;56128;37.534;-122.308;2024-03-17T00:00:38;101348.22;;;18.54;57.00
69058;BME280;56128;37.534;-122.308;2024-03-17T00:03:08;101341.66;;;18.57;57.43
69058;BME280;56128;37.534;-122.308;2024-03-17T00:05:38;101354.28;;;18.48;54.01
69058;BME280;56128;37.534;-122.308;2024-03-17T00:08:04;101349.31;;;18.25;52.50
69058;BME280;56128;37.534;-122.308;2024-03-17T00:10:34;101346.53;;;18.17;53.78
69058;BME280;56128;37.534;-122.308;2024-03-17T00:13:00;101349.69;;;18.12;55.24
69058;BME280;56128;37.534;-122.308;2024-03-17T00:15:26;101352.84;;;18.08;53.20
69058;BME280;56128;37.534;-122.308;2024-03-17T00:17:54;101344.94;;;17.96;55.72
69058;BME280;56128;37.534;-122.308;2024-03-17T00:20:20;101350.50;;;17.95;55.95
69058;BME280;56128;37.534;-122.308;2024-03-17T00:22:50;101360.59;;;17.93;59.16
69058;BME280;56128;37.534;-122.308;2024-03-17T00:25:19;101354.94;;;17.86;63.12
69058;BME280;56128;37.534;-122.308;2024-03-17T00:27:45;101357.25;;;17.81;65.43
69058;BME280;56128;37.534;-122.308;2024-03-17T00:30:13;101360.44;;;17.66;65.63
69058;BME280;56128;37.534;-122.308;2024-03-17T00:32:41;101358.69;;;17.75;66.71
69058;BME280;56128;37.534;-122.308;2024-03-17T00:35:09;101360.28;;;17.68;73.92
69058;BME280;56128;37.534;-122.308;2024-03-17T00:37:39;101367.16;;;17.62;79.03
69058;BME280;56128;37.534;-122.308;2024-03-17T00:40:06;101365.88;;;17.57;81.41
69058;BME280;56128;37.534;-122.308;2024-03-17T00:42:32;101370.63;;;17.45;85.47
69058;BME280;56128;37.534;-122.308;2024-03-17T00:44:59;101367.22;;;17.33;89.28
69058;BME280;56128;37.534;-122.308;2024-03-17T00:47:31;101366.81;;;17.38;90.93
69058;BME280;56128;37.534;-122.308;2024-03-17T00:49:57;101363.16;;;17.19;91.70
69058;BME280;56128;37.534;-122.308;2024-03-17T00:52:23;101369.44;;;17.10;91.10
69058;BME280;56128;37.534;-122.308;2024-03-17T00:54:49;101379.41;;;16.99;90.70
69058;BME280;56128;37.534;-122.308;2024-03-17T00:57:16;101380.22;;;16.90;93.87
69058;BME280;56128;37.534;-122.308;2024-03-17T00:59:44;101383.69;;;16.92;92.31
69058;BME280;56128;37.534;-122.308;2024-03-17T01:02:12;101385.53;;;16.82;97.90
69058;BME280;56128;37.534;-122.308;2024-03-17T01:04:42;101388.50;;;16.59;100.00
69058;BME280;56128;37.534;-122.308;2024-03-17T01:07:09;101392.47;;;16.55;100.00
69058;BME280;56128;37.534;-122.308;2024-03-17T01:09:36;101389.34;;;16.50;100.00
69058;BME280;56128;37.534;-122.308;2024-03-17T01:12:03;101387.06;;;16.35;100.00
69058;BME280;56128;37.534;-122.308;2024-03-17T01:14:30;101389.47;;;16.38;100.00
69058;BME280;56128;37.534;-122.308;2024-03-17T01:16:58;101387.88;;;16.26;100.00
69058;BME280;56128;37.534;-122.308;2024-03-17T01:19:25;101387.19;;;16.24;100.00
69058;BME280;56128;37.534;-122.308;2024-03-17T01:21:52;101394.53;;;16.12;100.00
69058;BME280;56128;37.534;-122.308;2024-03-17T01:24:19;101392.09;;;15.99;100.00
69058;BME280;56128;37.534;-122.308;2024-03-17T01:26:46;101393.03;;;15.88;100.00
69058;BME280;56128;37.534;-122.308;2024-03-17T01:29:12;101397.38;;;15.80;100.00
69058;BME280;56128;37.534;-122.308;2024-03-17T01:31:39;101399.06;;;15.81;100.00
69058;BME280;56128;37.534;-122.308;2024-03-17T01:34:05;101400.31;;;15.67;100.00
69058;BME280;56128;37.534;-122.308;2024-03-17T01:36:35;101397.28;;;15.60;100.00
69058;BME280;56128;37.534;-122.308;2024-03-17T01:39:01;101404.50;;;15.50;100.00
69058;BME280;56128;37.534;-122.308;2024-03-17T01:41:28;101404.28;;;15.41;100.00
69058;BME280;56128;37.534;-122.308;2024-03-17T01:43:56;101405.34;;;15.29;100.00
69058;BME280;56128;37.534;-122.308;2024-03-17T01:46:24;101404.06;;;15.23;100.00
69058;BME280;56128;37.534;-122.308;2024-03-17T01:48:51;101405.03;;;15.22;100.00
69058;BME280;56128;37.534;-122.308;2024-03-17T01:51:18;101409.16;;;15.05;100.00
69058;BME280;56128;37.534;-122.308;2024-03-17T01:53:48;101415.84;;;14.90;100.00
69058;BME280;56128;37.534;-122.308;2024-03-17T01:56:16;101407.81;;;14.79;100.00
69058;BME280;56128;37.534;-122.308;2024-03-17T01:58:44;101416.66;;;14.69;100.00
69058;BME280;56128;37.534;-122.308;2024-03-17T02:01:11;101417.78;;;14.55;100.00
69058;BME280;56128;37.534;-122.308;2024-03-17T02:03:41;101423.66;;;14.49;100.00
69058;BME280;56128;37.534;-122.308;2024-03-17T02:06:10;101430.44;;;14.32;100.00
69058;BME280;56128;37.534;-122.308;2024-03-17T02:08:48;101430.69;;;14.29;100.00
69058;BME280;56128;37.534;-122.308;2024-03-17T02:11:25;101435.38;;;14.16;100.00
69058;BME280;56128;37.534;-122.308;2024-03-17T02:13:53;101444.28;;;14.16;100.00
69058;BME280;56128;37.534;-122.308;2024-03-17T02:16:20;101444.94;;;13.97;100.00
69058;BME280;56128;37.534;-122.308;2024-03-17T02:18:46;101448.84;;;13.93;100.00
69058;BME280;56128;37.534;-122.308;2024-03-17T02:21:13;101465.56;;;13.85;100.00
69058;BME280;56128;37.534;-122.308;2024-03-17T02:23:42;101460.94;;;13.76;100.00
69058;BME280;56128;37.534;-122.308;2024-03-17T02:26:09;101467.53;;;13.72;100.00
69058;BME280;56128;37.534;-122.308;2024-03-17T02:28:43;101474.50;;;13.63;100.00
69058;BME280;56128;37.534;-122.308;2024-03-17T02:31:12;101484.22;;;13.53;100.00
69058;BME280;56128;37.534;-122.308;2024-03-17T02:33:39;101483.13;;;13.44;100.00
69058;BME280;56128;37.534;-122.308;2024-03-17T02:36:06;101487.34;;;13.35;100.00
69058;BME280;56128;37.534;-122.308;2024-03-17T02:38:33;101495.50;;;13.34;100.00
69058;BME280;56128;37.534;-122.308;2024-03-17T02:41:19;101501.72;;;13.23;100.00
69058;BME280;56128;37.534;-122.308;2024-03-17T02:43:46;101509.03;;;13.21;100.00
69058;BME280;56128;37.534;-122.308;2024-03-17T02:46:15;101509.28;;;13.18;100.00
69058;BME280;56128;37.534;-122.308;2024-03-17T02:48:45;101521.84;;;13.17;100.00
69058;BME280;56128;37.534;-122.308;2024-03-17T02:51:18;101520.06;;;13.05;100.00
69058;BME280;56128;37.534;-122.308;2024-03-17T02:53:46;101523.50;;;13.07;100.00
69058;BME280;56128;37.534;-122.308;2024-03-17T02:56:14;101531.78;;;13.04;100.00
69058;BME280;56128;37.534;-122.308;2024-03-17T02:58:45;101530.63;;;12.95;100.00
69058;BME280;56128;37.534;-122.308;2024-03-17T03:01:13;101530.75;;;12.93;100.00
69058;BME280;56128;37.534;-122.308;2024-03-17T03:03:41;101533.06;;;12.87;100.00
69058;BME280;56128;37.534;-122.308;2024-03-17T03:06:09;101539.19;;;12.89;100.00
69058;BME280;56128;37.534;-122.308;2024-03-17T03:08:41;101530.38;;;12.87;100.00
69058;BME280;56128;37.534;-122.308;2024-03-17T03:11:09;101541.56;;;12.80;100.00
69058;BME280;56128;37.534;-122.308;2024-03-17T03:13:41;101540.16;;;12.75;100.00
69058;BME280;56128;37.534;-122.308;2024-03-17T03:16:10;101547.38;;;12.74;100.00
69058;BME280;56128;37.534;-122.308;2024-03-17T03:18:38;101543.28;;;12.69;100.00
69058;BME280;56128;37.534;-122.308;2024-03-17T03:21:05;101556.31;;;12.62;100.00
69058;BME280;56128;37.534;-122.308;2024-03-17T03:23:33;101552.34;;;12.68;100.00
69058;BME280;56128;37.534;-122.308;2024-03-17T03:26:02;101553.00;;;12.58;100.00
69058;BME280;56128;37.534;-122.308;2024-03-17T03:28:29;101553.00;;;12.58;100.00
69058;BME280;56128;37.534;-122.308;2024-03-17T03:30:57;101560.19;;;12.58;100.00
69058;BME280;56128;37.534;-122.308;2024-03-17T03:33:24;101558.72;;;12.54;100.00
69058;BME280;56128;37.534;-122.308;2024-03-17T03:35:50;101553.56;;;12.50;100.00
69058;BME280;56128;37.534;-122.308;2024-03-17T03:38:17;101562.81;;;12.46;100.00
69058;BME280;56128;37.534;-122.308;2024-03-17T03:40:48;101549.59;;;12.43;100.00
69058;BME280;56128;37.534;-122.308;2024-03-17T03:43:15;101558.63;;;12.42;100.00
69058;BME280;56128;37.534;-122.308;2024-03-17T03:45:42;101556.25;;;12.38;100.00
69058;BME280;56128;37.534;-122.308;2024-03-17T03:48:09;101561.19;;;12.44;100.00
69058;BME280;56128;37.534;-122.308;2024-03-17T03:50:37;101566.44;;;12.45;100.00
69058;BME280;56128;37.534;-122.308;2024-03-17T03:53:04;101572.25;;;12.39;100.00
69058;BME280;56128;37.534;-122.308;2024-03-17T03:55:33;101588.47;;;12.38;100.00
69058;BME280;56128;37.534;-122.308;2024-03-17T03:58:05;101594.56;;;12.40;100.00
69058;BME280;56128;37.534;-122.308;2024-03-17T04:00:31;101590.59;;;12.45;100.00
69058;BME280;56128;37.534;-122.308;2024-03-17T04:02:58;101592.13;;;12.37;100.00
69058;BME280;56128;37.534;-122.308;2024-03-17T04:05:26;101601.78;;;12.39;100.00
69058;BME280;56128;37.534;-122.308;2024-03-17T04:07:52;101611.13;;;12.33;100.00
69058;BME280;56128;37.534;-122.308;2024-03-17T04:10:19;101604.47;;;12.26;100.00
69058;BME280;56128;37.534;-122.308;2024-03-17T04:12:46;101618.97;;;12.24;100.00
69058;BME280;56128;37.534;-122.308;2024-03-17T04:15:13;101615.31;;;12.25;100.00
69058;BME280;56128;37.534;-122.308;2024-03-17T04:17:40;101612.06;;;12.20;100.00
69058;BME280;56128;37.534;-122.308;2024-03-17T04:20:08;101622.38;;;12.13;100.00
69058;BME280;56128;37.534;-122.308;2024-03-17T04:22:36;101624.53;;;12.08;100.00
69058;BME280;56128;37.534;-122.308;2024-03-17T04:25:03;101626.00;;;11.99;100.00
69058;BME280;56128;37.534;-122.308;2024-03-17T04:27:30;101632.03;;;12.02;100.00
69058;BME280;56128;37.534;-122.308;2024-03-17T04:29:58;101628.81;;;11.97;100.00
69058;BME280;56128;37.534;-122.308;2024-03-17T04:32:25;101637.59;;;11.99;100.00
69058;BME280;56128;37.534;-122.308;2024-03-17T04:34:54;101641.34;;;11.97;100.00
69058;BME280;56128;37.534;-122.308;2024-03-17T04:37:20;101646.25;;;11.90;100.00
69058;BME280;56128;37.534;-122.308;2024-03-17T04:39:48;101645.47;;;11.88;100.00
69058;BME280;56128;37.534;-122.308;2024-03-17T04:42:15;101654.69;;;11.84;100.00
69058;BME280;56128;37.534;-122.308;2024-03-17T04:44:45;101655.00;;;11.79;100.00
69058;BME280;56128;37.534;-122.308;2024-03-17T04:47:12;101663.25;;;11.76;100.00
69058;BME280;56128;37.534;-122.308;2024-03-17T04:49:43;101671.50;;;11.73;100.00
69058;BME280;56128;37.534;-122.308;2024-03-17T04:52:12;101666.53;;;11.67;100.00
69058;BME280;56128;37.534;-122.308;2024-03-17T04:54:39;101677.59;;;11.62;100.00
69058;BME280;56128;37.534;-122.308;2024-03-17T04:57:08;101681.88;;;11.65;100.00
69058;BME280;56128;37.534;-122.308;2024-03-17T04:59:35;101676.72;;;11.62;100.00
69058;BME280;56128;37.534;-122.308;2024-03-17T05:02:02;101687.66;;;11.59;100.00
69058;BME280;56128;37.534;-122.308;2024-03-17T05:04:29;101683.34;;;11.56;100.00
69058;BME280;56128;37.534;-122.308;2024-03-17T05:06:56;101685.16;;;11.56;100.00
69058;BME280;56128;37.534;-122.308;2024-03-17T05:09:22;101686.16;;;11.55;100.00
69058;BME280;56128;37.534;-122.308;2024-03-17T05:11:50;101686.34;;;11.51;100.00
69058;BME280;56128;37.534;-122.308;2024-03-17T05:14:20;101691.25;;;11.45;100.00
69058;BME280;56128;37.534;-122.308;2024-03-17T05:16:50;101699.19;;;11.46;100.00
69058;BME280;56128;37.534;-122.308;2024-03-17T05:19:16;101702.47;;;11.37;100.00
69058;BME280;56128;37.534;-122.308;2024-03-17T05:21:44;101708.97;;;11.33;100.00
69058;BME280;56128;37.534;-122.308;2024-03-17T05:24:10;101707.44;;;11.29;100.00
69058;BME280;56128;37.534;-122.308;2024-03-17T05:26:38;101715.69;;;11.26;100.00
69058;BME280;56128;37.534;-122.308;2024-03-17T05:29:04;101712.63;;;11.17;100.00
69058;BME280;56128;37.534;-122.308;2024-03-17T05:31:30;101710.91;;;11.16;100.00
69058;BME280;56128;37.534;-122.308;2024-03-17T05:33:57;101710.34;;;11.11;100.00
69058;BME280;56128;37.534;-122.308;2024-03-17T05:36:23;101704.41;;;11.06;100.00
69058;BME280;56128;37.534;-122.308;2024-03-17T05:38:49;101715.03;;;11.08;100.00
69058;BME280;56128;37.534;-122.308;2024-03-17T05:41:15;101710.94;;;11.02;100.00
69058;BME280;56128;37.534;-122.308;2024-03-17T05:43:41;101717.25;;;11.01;100.00
69058;BME280;56128;37.534;-122.308;2024-03-17T05:46:12;101717.53;;;10.96;100.00
69058;BME280;56128;37.534;-122.308;2024-03-17T05:48:41;101710.38;;;10.97;100.00
69058;BME280;56128;37.534;-122.308;2024-03-17T05:51:09;101720.47;;;10.92;100.00
69058;BME280;56128;37.534;-122.308;2024-03-17T05:53:37;101725.19;;;10.88;100.00
69058;BME280;56128;37.534;-122.308;2024-03-17T05:56:06;101727.09;;;10.86;100.00
69058;BME280;56128;37.534;-122.308;2024-03-17T05:58:37;101721.06;;;10.82;100.00
69058;BME280;56128;37.534;-122.308;2024-03-17T06:01:04;101716.56;;;10.83;100.00
69058;BME280;56128;37.534;-122.308;2024-03-17T06:03:30;101718.09;;;10.87;100.00
69058;BME280;56128;37.534;-122.308;2024-03-17T06:05:59;101722.59;;;10.86;100.00
69058;BME280;56128;37.534;-122.308;2024-03-17T06:08:25;101718.66;;;10.78;100.00
69058;BME280;56128;37.534;-122.308;2024-03-17T06:10:51;101715.41;;;10.72;100.00
69058;BME280;56128;37.534;-122.308;2024-03-17T06:13:18;101715.78;;;10.66;100.00
69058;BME280;56128;37.534;-122.308;2024-03-17T06:15:45;101723.34;;;10.60;100.00
69058;BME280;56128;37.534;-122.308;2024-03-17T06:18:13;101724.50;;;10.55;100.00
69058;BME280;56128;37.534;-122.308;2024-03-17T06:20:41;101731.94;;;10.50;100.00
69058;BME280;56128;37.534;-122.308;2024-03-17T06:23:11;101735.84;;;10.45;100.00
69058;BME280;56128;37.534;-122.308;2024-03-17T06:25:42;101731.72;;;10.39;100.00
69058;BME280;56128;37.534;-122.308;2024-03-17T06:28:09;101725.66;;;10.35;100.00
69058;BME280;56128;37.534;-122.308;2024-03-17T06:30:46;101732.06;;;10.33;100.00
69058;BME280;56128;37.534;-122.308;2024-03-17T06:33:20;101732.31;;;10.28;100.00
69058;BME280;56128;37.534;-122.308;2024-03-17T06:35:47;101725.97;;;10.15;100.00
69058;BME280;56128;37.534;-122.308;2024-03-17T06:38:14;101727.91;;;10.13;100.00
69058;BME280;56128;37.534;-122.308;2024-03-17T06:40:41;101729.94;;;10.07;100.00
69058;BME280;56128;37.534;-122.308;2024-03-17T06:43:07;101721.28;;;10.04;100.00
69058;BME280;56128;37.534;-122.308;2024-03-17T06:45:34;101731.19;;;10.02;100.00
69058;BME280;56128;37.534;-122.308;2024-03-17T06:48:00;101729.31;;;10.04;100.00
69058;BME280;56128;37.534;-122.308;2024-03-17T06:50:26;101722.03;;;10.06;100.00
69058;BME280;56128;37.534;-122.308;2024-03-17T06:52:52;101727.56;;;10.03;100.00
69058;BME280;56128;37.534;-122.308;2024-03-17T06:55:19;101735.00;;;9.98;100.00
69058;BME280;56128;37.534;-122.308;2024-03-17T06:57:47;101722.75;;;9.94;100.00
69058;BME280;56128;37.534;-122.308;2024-03-17T07:00:14;101728.28;;;9.90;100.00
69058;BME280;56128;37.534;-122.308;2024-03-17T07:02:42;101724.13;;;9.85;100.00
69058;BME280;56128;37.534;-122.308;2024-03-17T07:05:14;101730.53;;;9.82;100.00
69058;BME280;56128;37.534;-122.308;2024-03-17T07:07:41;101727.25;;;9.77;100.00
69058;BME280;56128;37.534;-122.308;2024-03-17T07:10:08;101730.13;;;9.74;100.00
69058;BME280;56128;37.534;-122.308;2024-03-17T07:12:37;101727.59;;;9.71;100.00
69058;BME280;56128;37.534;-122.308;2024-03-17T07:15:03;101720.63;;;9.68;100.00
69058;BME280;56128;37.534;-122.308;2024-03-17T07:17:30;101723.50;;;9.65;100.00
69058;BME280;56128;37.534;-122.308;2024-03-17T07:19:56;101728.16;;;9.62;100.00
69058;BME280;56128;37.534;-122.308;2024-03-17T07:22:22;101719.34;;;9.59;100.00
69058;BME280;56128;37.534;-122.308;2024-03-17T07:24:48;101721.25;;;9.57;100.00
69058;BME280;56128;37.534;-122.308;2024-03-17T07:27:21;101718.53;;;9.89;100.00
69058;BME280;56128;37.534;-122.308;2024-03-17T07:29:47;101715.22;;;9.54;100.00
69058;BME280;56128;37.534;-122.308;2024-03-17T07:32:13;101714.09;;;9.42;100.00
69058;BME280;56128;37.534;-122.308;2024-03-17T07:34:40;101712.63;;;9.36;100.00
69058;BME280;56128;37.534;-122.308;2024-03-17T07:37:06;101711.00;;;9.34;100.00
69058;BME280;56128;37.534;-122.308;2024-03-17T07:39:32;101715.31;;;9.36;100.00
69058;BME280;56128;37.534;-122.308;2024-03-17T07:41:59;101710.31;;;9.30;100.00
69058;BME280;56128;37.534;-122.308;2024-03-17T07:44:30;101708.66;;;9.28;100.00
69058;BME280;56128;37.534;-122.308;2024-03-17T07:47:03;101708.81;;;9.24;100.00
69058;BME280;56128;37.534;-122.308;2024-03-17T07:49:33;101707.28;;;9.20;100.00
69058;BME280;56128;37.534;-122.308;2024-03-17T07:51:59;101709.34;;;9.15;100.00
69058;BME280;56128;37.534;-122.308;2024-03-17T07:54:25;101709.50;;;9.12;100.00
69058;BME280;56128;37.534;-122.308;2024-03-17T07:56:52;101701.44;;;9.14;100.00
69058;BME280;56128;37.534;-122.308;2024-03-17T07:59:18;101702.47;;;9.11;100.00
69058;BME280;56128;37.534;-122.308;2024-03-17T08:01:45;101704.69;;;9.03;100.00
69058;BME280;56128;37.534;-122.308;2024-03-17T08:04:11;101708.28;;;9.02;100.00
69058;BME280;56128;37.534;-122.308;2024-03-17T08:06:41;101705.00;;;8.97;100.00
69058;BME280;56128;37.534;-122.308;2024-03-17T08:09:08;101706.88;;;8.94;100.00
69058;BME280;56128;37.534;-122.308;2024-03-17T08:11:38;101707.91;;;8.92;100.00
69058;BME280;56128;37.534;-122.308;2024-03-17T08:14:09;101703.78;;;8.86;100.00
69058;BME280;56128;37.534;-122.308;2024-03-17T08:16:35;101713.69;;;8.84;100.00
69058;BME280;56128;37.534;-122.308;2024-03-17T08:19:01;101710.41;;;8.79;100.00
69058;BME280;56128;37.534;-122.308;2024-03-17T08:21:28;101709.78;;;8.74;100.00
69058;BME280;56128;37.534;-122.308;2024-03-17T08:23:55;101711.66;;;8.72;100.00
69058;BME280;56128;37.534;-122.308;2024-03-17T08:26:21;101712.41;;;8.91;100.00
69058;BME280;56128;37.534;-122.308;2024-03-17T08:28:48;101720.59;;;8.71;100.00
69058;BME280;56128;37.534;-122.308;2024-03-17T08:31:14;101716.31;;;9.66;100.00
69058;BME280;56128;37.534;-122.308;2024-03-17T08:33:43;101724.69;;;8.78;100.00
69058;BME280;56128;37.534;-122.308;2024-03-17T08:36:09;101722.97;;;8.59;100.00
69058;BME280;56128;37.534;-122.308;2024-03-17T08:38:37;101728.50;;;8.56;100.00
69058;BME280;56128;37.534;-122.308;2024-03-17T08:41:08;101727.66;;;8.72;100.00
69058;BME280;56128;37.534;-122.308;2024-03-17T08:43:36;101730.22;;;8.57;100.00
69058;BME280;56128;37.534;-122.308;2024-03-17T08:46:05;101731.66;;;8.45;100.00
69058;BME280;56128;37.534;-122.308;2024-03-17T08:48:33;101734.97;;;9.51;100.00
69058;BME280;56128;37.534;-122.308;2024-03-17T08:51:01;101735.72;;;8.88;100.00
69058;BME280;56128;37.534;-122.308;2024-03-17T08:53:28;101732.94;;;8.73;100.00
69058;BME280;56128;37.534;-122.308;2024-03-17T08:55:55;101728.09;;;8.64;100.00
69058;BME280;56128;37.534;-122.308;2024-03-17T08:58:22;101732.97;;;8.56;100.00
69058;BME280;56128;37.534;-122.308;2024-03-17T09:00:48;101732.19;;;8.54;100.00
69058;BME280;56128;37.534;-122.308;2024-03-17T09:03:14;101731.38;;;8.34;100.00
69058;BME280;56128;37.534;-122.308;2024-03-17T09:05:45;101726.28;;;8.29;100.00
69058;BME280;56128;37.534;-122.308;2024-03-17T09:08:20;101728.16;;;8.27;100.00
69058;BME280;56128;37.534;-122.308;2024-03-17T09:10:51;101736.47;;;8.74;100.00
69058;BME280;56128;37.534;-122.308;2024-03-17T09:13:19;101735.31;;;8.62;100.00
69058;BME280;56128;37.534;-122.308;2024-03-17T09:15:57;101734.75;;;8.38;100.00
69058;BME280;56128;37.534;-122.308;2024-03-17T09:18:31;101738.66;;;8.66;100.00
69058;BME280;56128;37.534;-122.308;2024-03-17T09:21:03;101737.28;;;8.23;100.00
69058;BME280;56128;37.534;-122.308;2024-03-17T09:23:30;101736.63;;;8.01;100.00
69058;BME280;56128;37.534;-122.308;2024-03-17T09:26:07;101736.28;;;7.89;100.00
69058;BME280;56128;37.534;-122.308;2024-03-17T09:28:43;101735.56;;;7.86;100.00
69058;BME280;56128;37.534;-122.308;2024-03-17T09:31:10;101735.72;;;7.83;100.00
69058;BME280;56128;37.534;-122.308;2024-03-17T09:33:37;101735.50;;;7.87;100.00
69058;BME280;56128;37.534;-122.308;2024-03-17T09:36:07;101733.00;;;8.19;100.00
69058;BME280;56128;37.534;-122.308;2024-03-17T09:38:35;101738.34;;;8.19;100.00
69058;BME280;56128;37.534;-122.308;2024-03-17T09:41:02;101739.66;;;8.10;100.00
69058;BME280;56128;37.534;-122.308;2024-03-17T09:43:31;101733.50;;;8.10;100.00
69058;BME280;56128;37.534;-122.308;2024-03-17T09:45:57;101733.56;;;8.08;100.00
69058;BME280;56128;37.534;-122.308;2024-03-17T09:48:26;101726.41;;;8.09;100.00
69058;BME280;56128;37.534;-122.308;2024-03-17T09:51:02;101720.31;;;8.07;100.00
69058;BME280;56128;37.534;-122.308;2024-03-17T09:53:30;101717.00;;;8.02;100.00
69058;BME280;56128;37.534;-122.308;2024-03-17T09:56:15;101722.09;;;8.06;100.00
69058;BME280;56128;37.534;-122.308;2024-03-17T09:58:42;101721.78;;;7.95;100.00
69058;BME280;56128;37.534;-122.308;2024-03-17T10:01:09;101722.00;;;7.90;100.00
69058;BME280;56128;37.534;-122.308;2024-03-17T10:03:55;101720.09;;;7.75;100.00
69058;BME280;56128;37.534;-122.308;2024-03-17T10:06:22;101723.75;;;7.91;100.00
69058;BME280;56128;37.534;-122.308;2024-03-17T10:08:53;101721.38;;;7.85;100.00
69058;BME280;56128;37.534;-122.308;2024-03-17T10:11:24;101721.69;;;7.79;100.00
69058;BME280;56128;37.534;-122.308;2024-03-17T10:14:06;101724.41;;;7.77;100.00
69058;BME280;56128;37.534;-122.308;2024-03-17T10:16:37;101712.03;;;7.76;100.00
69058;BME280;56128;37.534;-122.308;2024-03-17T10:19:23;101714.69;;;7.76;100.00
69058;BME280;56128;37.534;-122.308;2024-03-17T10:21:50;101715.78;;;7.72;100.00
69058;BME280;56128;37.534;-122.308;2024-03-17T10:24:25;101713.25;;;7.69;100.00
69058;BME280;56128;37.534;-122.308;2024-03-17T10:26:55;101710.84;;;7.64;100.00
69058;BME280;56128;37.534;-122.308;2024-03-17T10:29:29;101709.34;;;7.59;100.00
69058;BME280;56128;37.534;-122.308;2024-03-17T10:32:03;101710.63;;;7.50;100.00
69058;BME280;56128;37.534;-122.308;2024-03-17T10:34:31;101703.75;;;7.46;100.00
69058;BME280;56128;37.534;-122.308;2024-03-17T10:39:39;101707.53;;;7.40;100.00
69058;BME280;56128;37.534;-122.308;2024-03-17T10:42:07;101697.91;;;7.38;100.00
69058;BME280;56128;37.534;-122.308;2024-03-17T10:44:41;101695.25;;;7.38;100.00
69058;BME280;56128;37.534;-122.308;2024-03-17T10:47:21;101693.69;;;7.34;100.00
69058;BME280;56128;37.534;-122.308;2024-03-17T10:49:50;101697.22;;;7.34;100.00
69058;BME280;56128;37.534;-122.308;2024-03-17T10:52:18;101691.94;;;7.32;100.00
69058;BME280;56128;37.534;-122.308;2024-03-17T10:54:48;101681.25;;;7.34;100.00
69058;BME280;56128;37.534;-122.308;2024-03-17T11:00:04;101685.41;;;7.40;100.00
69058;BME280;56128;37.534;-122.308;2024-03-17T11:02:31;101670.50;;;7.36;100.00
69058;BME280;56128;37.534;-122.308;2024-03-17T11:05:00;101684.59;;;7.38;100.00
69058;BME280;56128;37.534;-122.308;2024-03-17T11:07:28;101680.22;;;7.37;100.00
69058;BME280;56128;37.534;-122.308;2024-03-17T11:09:58;101685.69;;;7.34;100.00
69058;BME280;56128;37.534;-122.308;2024-03-17T11:20:58;101692.41;;;7.23;100.00
69058;BME280;56128;37.534;-122.308;2024-03-17T11:23:30;101692.84;;;7.14;100.00
69058;BME280;56128;37.534;-122.308;2024-03-17T11:25:57;101688.38;;;7.14;100.00
69058;BME280;56128;37.534;-122.308;2024-03-17T11:31:43;101687.44;;;7.15;100.00
69058;BME280;56128;37.534;-122.308;2024-03-17T11:36:52;101685.63;;;7.16;100.00
69058;BME280;56128;37.534;-122.308;2024-03-17T11:39:51;101669.56;;;7.18;100.00
69058;BME280;56128;37.534;-122.308;2024-03-17T11:42:25;101684.78;;;7.15;100.00
69058;BME280;56128;37.534;-122.308;2024-03-17T11:44:59;101681.09;;;7.18;100.00
69058;BME280;56128;37.534;-122.308;2024-03-17T11:47:46;101691.81;;;7.17;100.00
69058;BME280;56128;37.534;-122.308;2024-03-17T11:50:15;101688.22;;;7.18;100.00
69058;BME280;56128;37.534;-122.308;2024-03-17T11:52:42;101689.00;;;7.20;100.00
69058;BME280;56128;37.534;-122.308;2024-03-17T11:55:17;101687.34;;;7.17;100.00
69058;BME280;56128;37.534;-122.308;2024-03-17T11:57:44;101691.59;;;7.21;100.00
69058;BME280;56128;37.534;-122.308;2024-03-17T12:00:22;101694.69;;;7.31;100.00
69058;BME280;56128;37.534;-122.308;2024-03-17T12:02:49;101695.41;;;7.35;100.00
69058;BME280;56128;37.534;-122.308;2024-03-17T12:05:16;101683.38;;;7.45;100.00
69058;BME280;56128;37.534;-122.308;2024-03-17T12:07:42;101678.03;;;7.45;100.00
69058;BME280;56128;37.534;-122.308;2024-03-17T12:10:12;101688.41;;;7.51;100.00
69058;BME280;56128;37.534;-122.308;2024-03-17T12:12:39;101687.75;;;7.46;100.00
69058;BME280;56128;37.534;-122.308;2024-03-17T12:15:18;101691.53;;;7.42;100.00
69058;BME280;56128;37.534;-122.308;2024-03-17T12:17:45;101688.06;;;7.40;100.00
69058;BME280;56128;37.534;-122.308;2024-03-17T12:20:19;101690.09;;;7.35;100.00
69058;BME280;56128;37.534;-122.308;2024-03-17T12:22:46;101695.41;;;7.35;100.00
69058;BME280;56128;37.534;-122.308;2024-03-17T12:25:20;101691.72;;;7.37;100.00
69058;BME280;56128;37.534;-122.308;2024-03-17T12:27:47;101696.41;;;7.32;100.00
69058;BME280;56128;37.534;-122.308;2024-03-17T12:30:15;101696.53;;;7.29;100.00
69058;BME280;56128;37.534;-122.308;2024-03-17T12:32:41;101697.72;;;7.23;100.00
69058;BME280;56128;37.534;-122.308;2024-03-17T12:35:15;101696.34;;;7.14;100.00
69058;BME280;56128;37.534;-122.308;2024-03-17T12:37:44;101697.47;;;7.09;100.00
69058;BME280;56128;37.534;-122.308;2024-03-17T12:40:21;101705.47;;;7.09;100.00
69058;BME280;56128;37.534;-122.308;2024-03-17T12:42:49;101702.97;;;7.06;100.00